Archival Weather

Chicago O'Hare International

Chicago, Illinois (KORD)

Report from: Thursday, June 23, 2022 12:51 AM CDT
Current time: Sunday, June 26, 2022 11:50 AM CDT

Current weather
Weather history
Weather forecast

Temperature22.2°C (72.0°F)
Dew point14.4°C (57.9°F)
Winds 8 kts (4.1 m/s, 9.2 mph) North (350°)
Visibility10 mi. (16.1 km)
Clouds Few clouds 25,000 ft. (7,620 m)
Altimeter30.04 in.Hg (1017 mB)
Relative humidity61 %
Density altitude931 ft. (284 m)
Sea-level pressure101.7 kPa (1017 mB, 30.02 in.Hg)
Max temp last 6 hours29.4°C (84.9°F)
Min temp last 6 hours22.2°C (72.0°F)
Max temp last 24 hours31.7°C (89.1°F)
Min temp last 24 hours22.2°C (72.0°F)
Remarks Automated weather observing station with precipitation discriminator
Pressure rising more slowly
Flight conditions Visual Meteorological Conditions
Raw dataKORD 230551Z 35008KT 10SM FEW250 22/14 A3004 RMK AO2 SLP166 T02220144 10294 20222 403170222 51001
An error has occurred. This application may no longer respond until reloaded. Reload 🗙